Portada
METAR-TAF:

Aeropuertos :

Viru-Viru, Bolivia

Aeropuerto Internacional Viru Viru

latitud: 17-38S, longitud: 063-08W, altitud: 373 m

Observación

El informe se hizo hace 37 minutos, a las 10:00 UTC
Viento 7 kt del norte
Temperatura 18°C
Humedad 100%
Presión 1013 hPa
Visibilidad: 9000 m

METAR: SLVR 241000Z 36007KT 9000 NSC 18/18 Q1013

Hora: 06:37 (10:37 UTC)

Pronóstico

El informe se hizo hace 6 horas y 17 minutos, a las 04:20 UTC
Pronóstico válido del 24 a las 06 UTC al 25 a las 06 UTC
Viento 10 kt del norte-noroeste
Visibilidad 10 km o más
Evolucionando progresivamente
del 24 a las 15 UTC al 24 a las 18 UTC
Viento 15 kt del norte-noroeste con ráfagas de 25 kt
Nubes dispersas a una altura de 2000 ft

TAF: SLVR 240420Z 2406/2506 34010KT 9999 NSC TX31/2420Z TN16/2411Z BECMG 2415/2418 34015G25KT SCT020

METAR-TAF

Observaciones y pronósticos meteorológicos de más de 4000 aeropuertos (mensajes METAR y TAF).

Los puntos amarillos y rojos representan las estaciones disponibles.

Ponga el ratón en el punto deseado para ver el nombre de la estación.

Haga clic para ver las observaciones y los pronósticos meteorológicos.

Para cambiar el mapa : haga clic en los botones verdes con una cruz de color negro para hacer un zoom, en el botón verde con un guión para alejar o en las flechas verdes para mapas adyacentes.


METAR-TAF: